createdAt,value
2023-02-16T00:00:35.888Z,97005.00
2023-02-16T00:01:35.953Z,97007.00
2023-02-16T00:02:34.957Z,97009.00
2023-02-16T00:03:36.059Z,97005.00
2023-02-16T00:04:36.000Z,97005.00
2023-02-16T00:05:36.232Z,97007.00
2023-02-16T00:06:36.239Z,97005.00
2023-02-16T00:07:35.131Z,97007.00
2023-02-16T00:08:36.214Z,97005.00
2023-02-16T00:09:36.427Z,97003.00
2023-02-16T00:10:36.160Z,97003.00
2023-02-16T00:11:35.247Z,97001.00
2023-02-16T00:12:36.465Z,96999.00
2023-02-16T00:13:36.454Z,97001.00
2023-02-16T00:14:36.667Z,97001.00
2023-02-16T00:15:35.595Z,97001.00
2023-02-16T00:16:36.557Z,96995.00
2023-02-16T00:17:36.493Z,96997.00
2023-02-16T00:18:35.504Z,96997.00
2023-02-16T00:19:35.480Z,96997.00
2023-02-16T00:20:36.639Z,96995.00
2023-02-16T00:21:36.641Z,96993.00
2023-02-16T00:22:35.491Z,96993.00
2023-02-16T00:23:36.694Z,96993.00
2023-02-16T00:24:35.630Z,96995.00
2023-02-16T00:25:36.572Z,96993.00
2023-02-16T00:26:36.591Z,96995.00
2023-02-16T00:27:35.621Z,96993.00
2023-02-16T00:28:35.657Z,96995.00
2023-02-16T00:29:36.696Z,96995.00
2023-02-16T00:30:35.759Z,96993.00
2023-02-16T00:31:36.023Z,96991.00
2023-02-16T00:32:35.756Z,96993.00
2023-02-16T00:33:35.820Z,96989.00
2023-02-16T00:34:36.825Z,96987.00
2023-02-16T00:35:36.846Z,96985.00
2023-02-16T00:36:36.892Z,96981.00
2023-02-16T00:37:36.908Z,96981.00
2023-02-16T00:38:36.920Z,96979.00
2023-02-16T00:39:36.961Z,96979.00
2023-02-16T00:40:36.979Z,96976.00
2023-02-16T00:41:37.010Z,96974.00
2023-02-16T00:42:37.046Z,96974.00
2023-02-16T00:43:37.058Z,96972.00
2023-02-16T00:44:37.692Z,96972.00
2023-02-16T00:45:37.119Z,96968.00
2023-02-16T00:46:37.197Z,96966.00
2023-02-16T00:47:36.204Z,96966.00
2023-02-16T00:48:37.283Z,96968.00
2023-02-16T00:49:37.269Z,96970.00
2023-02-16T00:50:37.244Z,96970.00
2023-02-16T00:51:37.285Z,96970.00
2023-02-16T00:52:37.314Z,96970.00
2023-02-16T00:53:37.336Z,96972.00
2023-02-16T00:54:36.376Z,96974.00
2023-02-16T00:55:37.460Z,96974.00
2023-02-16T00:56:36.458Z,96976.00
2023-02-16T00:57:36.456Z,96978.00
2023-02-16T00:58:37.493Z,96979.00
2023-02-16T00:59:37.681Z,96976.00
2023-02-16T01:00:37.705Z,96978.00
2023-02-16T01:01:37.638Z,96976.00
2023-02-16T01:02:37.613Z,96976.00
2023-02-16T01:03:37.893Z,96976.00
2023-02-16T01:04:36.699Z,96976.00
2023-02-16T01:05:37.886Z,96974.00
2023-02-16T01:06:37.901Z,96976.00
2023-02-16T01:07:36.853Z,96974.00
2023-02-16T01:08:37.813Z,96972.00
2023-02-16T01:09:38.068Z,96970.00
2023-02-16T01:10:37.176Z,96972.00
2023-02-16T01:11:38.482Z,96972.00
2023-02-16T01:12:38.007Z,96970.00
2023-02-16T01:13:38.047Z,96970.00
2023-02-16T01:14:38.153Z,96972.00
2023-02-16T01:15:38.051Z,96972.00
2023-02-16T01:16:37.998Z,96974.00
2023-02-16T01:17:37.027Z,96972.00
2023-02-16T01:18:38.055Z,96970.00
2023-02-16T01:19:37.077Z,96970.00
2023-02-16T01:20:38.119Z,96968.00
2023-02-16T01:21:38.179Z,96968.00
2023-02-16T01:22:38.168Z,96966.00
2023-02-16T01:23:38.188Z,96968.00
2023-02-16T01:24:38.228Z,96964.00
2023-02-16T01:25:37.253Z,96960.00
2023-02-16T01:26:38.281Z,96960.00
2023-02-16T01:27:38.319Z,96960.00
2023-02-16T01:28:37.333Z,96960.00
2023-02-16T01:29:38.393Z,96960.00
2023-02-16T01:30:38.399Z,96962.00
2023-02-16T01:31:38.526Z,96962.00
2023-02-16T01:32:38.450Z,96964.00
2023-02-16T01:33:37.465Z,96962.00
2023-02-16T01:34:38.499Z,96962.00
2023-02-16T01:35:38.546Z,96962.00
2023-02-16T01:36:37.564Z,96962.00
2023-02-16T01:37:38.608Z,96962.00
2023-02-16T01:38:38.619Z,96958.00
2023-02-16T01:39:37.647Z,96956.00
2023-02-16T01:40:38.689Z,96956.00
2023-02-16T01:41:37.679Z,96958.00
2023-02-16T01:42:38.705Z,96958.00
2023-02-16T01:43:38.736Z,96960.00
2023-02-16T01:44:38.761Z,96948.00
2023-02-16T01:45:38.808Z,96958.00
2023-02-16T01:46:37.919Z,96960.00
2023-02-16T01:47:37.958Z,96946.00
2023-02-16T01:48:38.877Z,96946.00
2023-02-16T01:49:38.922Z,96946.00
2023-02-16T01:50:38.955Z,96940.00
2023-02-16T01:51:38.974Z,96938.00
2023-02-16T01:52:37.998Z,96934.00
2023-02-16T01:53:38.082Z,96934.00
2023-02-16T01:54:38.055Z,96932.00
2023-02-16T01:55:38.079Z,96932.00
2023-02-16T01:56:39.105Z,96934.00
2023-02-16T01:57:39.156Z,96934.00
2023-02-16T01:58:39.285Z,96928.00
2023-02-16T01:59:38.203Z,96928.00
2023-02-16T02:00:39.249Z,96928.00
2023-02-16T02:01:39.458Z,96926.00
2023-02-16T02:02:39.371Z,96924.00
2023-02-16T02:03:38.323Z,96924.00
2023-02-16T02:04:39.365Z,96924.00
2023-02-16T02:05:39.373Z,96924.00
2023-02-16T02:06:39.396Z,96926.00
2023-02-16T02:07:39.431Z,96924.00
2023-02-16T02:08:39.463Z,96924.00
2023-02-16T02:09:38.520Z,96924.00
2023-02-16T02:10:39.517Z,96920.00
2023-02-16T02:11:39.554Z,96922.00
2023-02-16T02:12:39.570Z,96918.00
2023-02-16T02:13:39.616Z,96918.00
2023-02-16T02:14:38.633Z,96917.00
2023-02-16T02:15:38.678Z,96917.00
2023-02-16T02:16:38.925Z,96913.00
2023-02-16T02:17:39.773Z,96911.00
2023-02-16T02:18:40.448Z,96909.00
2023-02-16T02:19:39.860Z,96909.00
2023-02-16T02:20:40.019Z,96905.00
2023-02-16T02:21:39.956Z,96905.00
2023-02-16T02:22:40.016Z,96903.00
2023-02-16T02:23:39.958Z,96903.00
2023-02-16T02:24:40.107Z,96901.00
2023-02-16T02:25:40.295Z,96899.00
2023-02-16T02:26:40.485Z,96903.00
2023-02-16T02:27:40.058Z,96903.00
2023-02-16T02:28:40.278Z,96903.00
2023-02-16T02:29:40.329Z,96903.00
2023-02-16T02:30:40.311Z,96905.00
2023-02-16T02:31:40.432Z,96907.00
2023-02-16T02:32:40.259Z,96907.00
2023-02-16T02:33:40.269Z,96907.00
2023-02-16T02:34:40.379Z,96907.00
2023-02-16T02:35:40.348Z,96907.00
2023-02-16T02:36:40.389Z,96909.00
2023-02-16T02:37:40.399Z,96907.00
2023-02-16T02:38:40.453Z,96907.00
2023-02-16T02:39:40.448Z,96909.00
2023-02-16T02:40:40.512Z,96909.00
2023-02-16T02:41:39.508Z,96909.00
2023-02-16T02:42:39.528Z,96909.00
2023-02-16T02:43:39.566Z,96911.00
2023-02-16T02:44:40.600Z,96911.00
2023-02-16T02:45:40.642Z,96911.00
2023-02-16T02:46:40.688Z,96907.00
2023-02-16T02:47:40.697Z,96905.00
2023-02-16T02:48:40.710Z,96905.00
2023-02-16T02:49:40.751Z,96901.00
2023-02-16T02:50:39.793Z,96905.00
2023-02-16T02:51:39.818Z,96901.00
2023-02-16T02:52:39.839Z,96901.00
2023-02-16T02:53:40.879Z,96901.00
2023-02-16T02:54:40.916Z,96901.00
2023-02-16T02:55:40.937Z,96903.00
2023-02-16T02:56:39.982Z,96901.00
2023-02-16T02:57:40.985Z,96901.00
2023-02-16T02:58:40.018Z,96901.00
2023-02-16T02:59:41.049Z,96903.00
2023-02-16T03:00:41.241Z,96901.00
2023-02-16T03:01:40.208Z,96899.00
2023-02-16T03:02:41.144Z,96901.00
2023-02-16T03:03:40.176Z,96899.00
2023-02-16T03:04:41.207Z,96901.00
2023-02-16T03:05:41.239Z,96899.00
2023-02-16T03:06:41.298Z,96901.00
2023-02-16T03:07:41.315Z,96897.00
2023-02-16T03:08:41.344Z,96899.00
2023-02-16T03:09:41.363Z,96899.00
2023-02-16T03:10:41.414Z,96899.00
2023-02-16T03:11:41.447Z,96901.00
2023-02-16T03:12:41.575Z,96897.00
2023-02-16T03:13:41.492Z,96899.00
2023-02-16T03:14:40.555Z,96895.00
2023-02-16T03:15:40.569Z,96897.00
2023-02-16T03:16:41.687Z,96901.00
2023-02-16T03:17:41.615Z,96901.00
2023-02-16T03:18:41.642Z,96905.00
2023-02-16T03:19:40.699Z,96905.00
2023-02-16T03:20:41.701Z,96905.00
2023-02-16T03:21:41.769Z,96907.00
2023-02-16T03:22:40.771Z,96907.00
2023-02-16T03:23:41.801Z,96909.00
2023-02-16T03:24:41.868Z,96909.00
2023-02-16T03:25:40.860Z,96909.00
2023-02-16T03:26:41.913Z,96909.00
2023-02-16T03:27:40.929Z,96905.00
2023-02-16T03:28:41.987Z,96905.00
2023-02-16T03:29:40.987Z,96905.00
2023-02-16T03:30:42.260Z,96903.00
2023-02-16T03:31:42.104Z,96899.00
2023-02-16T03:32:42.077Z,96901.00
2023-02-16T03:33:42.114Z,96899.00
2023-02-16T03:34:42.149Z,96899.00
2023-02-16T03:35:41.182Z,96899.00
2023-02-16T03:36:42.241Z,96899.00
2023-02-16T03:37:42.234Z,96901.00
2023-02-16T03:38:41.278Z,96901.00
2023-02-16T03:39:41.309Z,96901.00
2023-02-16T03:40:41.352Z,96903.00
2023-02-16T03:41:42.391Z,96901.00
2023-02-16T03:42:42.409Z,96903.00
2023-02-16T03:43:42.436Z,96905.00
2023-02-16T03:44:42.396Z,96905.00
2023-02-16T03:45:42.539Z,96905.00
2023-02-16T03:46:42.541Z,96903.00
2023-02-16T03:47:42.557Z,96907.00
2023-02-16T03:48:42.583Z,96905.00
2023-02-16T03:49:42.613Z,96905.00
2023-02-16T03:50:42.667Z,96907.00
2023-02-16T03:51:42.714Z,96907.00
2023-02-16T03:52:42.722Z,96905.00
2023-02-16T03:53:42.750Z,96905.00
2023-02-16T03:54:42.773Z,96905.00
2023-02-16T03:55:41.830Z,96907.00
2023-02-16T03:56:42.906Z,96907.00
2023-02-16T03:57:42.882Z,96907.00
2023-02-16T03:58:41.914Z,96907.00
2023-02-16T03:59:41.949Z,96907.00
2023-02-16T04:00:43.066Z,96907.00
2023-02-16T04:01:43.095Z,96911.00
2023-02-16T04:02:43.053Z,96907.00
2023-02-16T04:03:43.081Z,96911.00
2023-02-16T04:04:43.110Z,96913.00
2023-02-16T04:05:42.150Z,96909.00
2023-02-16T04:06:43.185Z,96909.00
2023-02-16T04:07:43.215Z,96909.00
2023-02-16T04:08:43.244Z,96909.00
2023-02-16T04:09:43.283Z,96911.00
2023-02-16T04:10:42.342Z,96909.00
2023-02-16T04:11:42.339Z,96907.00
2023-02-16T04:12:43.381Z,96905.00
2023-02-16T04:13:43.398Z,96903.00
2023-02-16T04:14:43.763Z,96903.00
2023-02-16T04:15:42.527Z,96903.00
2023-02-16T04:16:42.612Z,96903.00
2023-02-16T04:17:43.589Z,96901.00
2023-02-16T04:18:43.595Z,96899.00
2023-02-16T04:19:43.621Z,96897.00
2023-02-16T04:20:43.634Z,96897.00
2023-02-16T04:21:43.689Z,96899.00
2023-02-16T04:22:42.746Z,96899.00
2023-02-16T04:23:43.754Z,96901.00
2023-02-16T04:24:43.767Z,96899.00
2023-02-16T04:25:42.840Z,96899.00
2023-02-16T04:26:42.945Z,96901.00
2023-02-16T04:27:44.030Z,96899.00
2023-02-16T04:28:44.076Z,96899.00
2023-02-16T04:29:43.977Z,96897.00
2023-02-16T04:30:44.481Z,96899.00
2023-02-16T04:31:44.414Z,96897.00
2023-02-16T04:32:44.356Z,96899.00
2023-02-16T04:33:44.164Z,96899.00
2023-02-16T04:34:43.176Z,96897.00
2023-02-16T04:35:44.353Z,96897.00
2023-02-16T04:36:43.241Z,96901.00
2023-02-16T04:37:44.698Z,96897.00
2023-02-16T04:38:43.356Z,96901.00
2023-02-16T04:39:44.657Z,96897.00
2023-02-16T04:40:44.489Z,96897.00
2023-02-16T04:41:44.545Z,96895.00
2023-02-16T04:42:44.874Z,96897.00
2023-02-16T04:43:44.607Z,96897.00
2023-02-16T04:44:44.657Z,96899.00
2023-02-16T04:45:44.829Z,96897.00
2023-02-16T04:46:43.624Z,96897.00
2023-02-16T04:47:44.694Z,96897.00
2023-02-16T04:48:44.721Z,96899.00
2023-02-16T04:49:44.741Z,96899.00
2023-02-16T04:50:44.768Z,96901.00
2023-02-16T04:51:44.811Z,96901.00
2023-02-16T04:52:44.892Z,96901.00
2023-02-16T04:53:44.876Z,96899.00
2023-02-16T04:54:44.896Z,96899.00
2023-02-16T04:55:43.939Z,96903.00
2023-02-16T04:56:43.969Z,96901.00
2023-02-16T04:57:45.035Z,96901.00
2023-02-16T04:58:45.024Z,96901.00
2023-02-16T04:59:45.066Z,96903.00
2023-02-16T05:00:45.098Z,96901.00
2023-02-16T05:01:45.467Z,96901.00
2023-02-16T05:02:45.271Z,96903.00
2023-02-16T05:03:44.364Z,96907.00
2023-02-16T05:04:45.358Z,96909.00
2023-02-16T05:05:45.362Z,96913.00
2023-02-16T05:06:45.329Z,96913.00
2023-02-16T05:07:45.413Z,96913.00
2023-02-16T05:08:45.716Z,96915.00
2023-02-16T05:09:44.476Z,96915.00
2023-02-16T05:10:45.539Z,96915.00
2023-02-16T05:11:45.746Z,96913.00
2023-02-16T05:12:46.989Z,96917.00
2023-02-16T05:13:45.942Z,96918.00
2023-02-16T05:14:46.287Z,96918.00
2023-02-16T05:15:46.317Z,96920.00
2023-02-16T05:16:45.866Z,96920.00
2023-02-16T05:17:46.365Z,96924.00
2023-02-16T05:18:46.098Z,96924.00
2023-02-16T05:19:46.098Z,96926.00
2023-02-16T05:20:46.116Z,96928.00
2023-02-16T05:21:45.076Z,96928.00
2023-02-16T05:22:46.146Z,96928.00
2023-02-16T05:23:45.161Z,96926.00
2023-02-16T05:24:46.200Z,96928.00
2023-02-16T05:25:46.249Z,96926.00
2023-02-16T05:26:46.302Z,96926.00
2023-02-16T05:27:46.351Z,96928.00
2023-02-16T05:28:46.362Z,96934.00
2023-02-16T05:29:46.488Z,96940.00
2023-02-16T05:30:46.511Z,96944.00
2023-02-16T05:31:45.626Z,96946.00
2023-02-16T05:32:46.572Z,96956.00
2023-02-16T05:33:45.571Z,96958.00
2023-02-16T05:34:46.610Z,96960.00
2023-02-16T05:35:45.682Z,96962.00
2023-02-16T05:36:46.681Z,96962.00
2023-02-16T05:37:46.744Z,96962.00
2023-02-16T05:38:45.766Z,96962.00
2023-02-16T05:39:46.921Z,96960.00
2023-02-16T05:40:45.848Z,96962.00
2023-02-16T05:41:46.884Z,96964.00
2023-02-16T05:42:46.944Z,96966.00
2023-02-16T05:43:46.672Z,96966.00
2023-02-16T05:44:46.011Z,96968.00
2023-02-16T05:45:47.061Z,96968.00
2023-02-16T05:46:47.094Z,96970.00
2023-02-16T05:47:47.397Z,96974.00
2023-02-16T05:48:46.194Z,96978.00
2023-02-16T05:49:47.228Z,96978.00
2023-02-16T05:50:47.324Z,96978.00
2023-02-16T05:51:47.312Z,96978.00
2023-02-16T05:52:47.663Z,96981.00
2023-02-16T05:53:47.672Z,96981.00
2023-02-16T05:54:46.489Z,96981.00
2023-02-16T05:55:47.806Z,96983.00
2023-02-16T05:56:47.785Z,96985.00
2023-02-16T05:57:46.628Z,96987.00
2023-02-16T05:58:48.020Z,96983.00
2023-02-16T05:59:47.952Z,96981.00
2023-02-16T06:00:46.944Z,96991.00
2023-02-16T06:01:51.263Z,96983.00
2023-02-16T06:02:46.917Z,96985.00
2023-02-16T06:03:48.084Z,96989.00
2023-02-16T06:04:47.875Z,96991.00
2023-02-16T06:05:47.905Z,96991.00
2023-02-16T06:06:47.858Z,96993.00
2023-02-16T06:07:46.824Z,96997.00
2023-02-16T06:08:47.888Z,96995.00
2023-02-16T06:09:47.015Z,96995.00
2023-02-16T06:10:47.826Z,96993.00
2023-02-16T06:11:47.799Z,96995.00
2023-02-16T06:12:47.843Z,96997.00
2023-02-16T06:13:46.898Z,96997.00
2023-02-16T06:14:46.947Z,96995.00
2023-02-16T06:15:48.011Z,96995.00
2023-02-16T06:16:47.033Z,96997.00
2023-02-16T06:17:48.084Z,96999.00
2023-02-16T06:18:48.129Z,97001.00
2023-02-16T06:19:47.185Z,97005.00
2023-02-16T06:20:48.215Z,97009.00
2023-02-16T06:21:48.281Z,97011.00
2023-02-16T06:22:48.365Z,97011.00
2023-02-16T06:23:48.364Z,97013.00
2023-02-16T06:24:48.433Z,97011.00
2023-02-16T06:25:48.463Z,97011.00
2023-02-16T06:26:48.523Z,97013.00
2023-02-16T06:27:48.557Z,97013.00
2023-02-16T06:28:48.609Z,97009.00
2023-02-16T06:29:48.669Z,97007.00
2023-02-16T06:30:47.713Z,97007.00
2023-02-16T06:31:48.020Z,97007.00
2023-02-16T06:32:47.811Z,97007.00
2023-02-16T06:33:48.858Z,97005.00
2023-02-16T06:34:48.913Z,97005.00
2023-02-16T06:35:48.954Z,97007.00
2023-02-16T06:36:48.994Z,97011.00
2023-02-16T06:37:48.049Z,97015.00
2023-02-16T06:38:48.112Z,97017.00
2023-02-16T06:39:49.146Z,97019.00
2023-02-16T06:40:49.257Z,97019.00
2023-02-16T06:41:49.231Z,97019.00
2023-02-16T06:42:49.281Z,97021.00
2023-02-16T06:43:49.324Z,97019.00
2023-02-16T06:44:49.382Z,97021.00
2023-02-16T06:45:48.438Z,97019.00
2023-02-16T06:46:49.538Z,97017.00
2023-02-16T06:47:49.537Z,97017.00
2023-02-16T06:48:49.587Z,97013.00
2023-02-16T06:49:49.627Z,97017.00
2023-02-16T06:50:48.668Z,97013.00
2023-02-16T06:51:49.734Z,97015.00
2023-02-16T06:52:49.771Z,97017.00
2023-02-16T06:53:48.831Z,97019.00
2023-02-16T06:54:49.987Z,97019.00
2023-02-16T06:55:49.932Z,97021.00
2023-02-16T06:56:49.970Z,97019.00
2023-02-16T06:57:50.012Z,97023.00
2023-02-16T06:58:49.051Z,97025.00
2023-02-16T06:59:50.094Z,97025.00
2023-02-16T07:00:50.246Z,97023.00
2023-02-16T07:01:49.216Z,97021.00
2023-02-16T07:02:50.341Z,97019.00
2023-02-16T07:03:49.297Z,97017.00
2023-02-16T07:04:50.345Z,97019.00
2023-02-16T07:05:50.402Z,97023.00
2023-02-16T07:06:50.455Z,97023.00
2023-02-16T07:07:50.495Z,97023.00
2023-02-16T07:08:50.589Z,97026.00
2023-02-16T07:09:50.596Z,97028.00
2023-02-16T07:10:50.787Z,97030.00
2023-02-16T07:11:49.773Z,97032.00
2023-02-16T07:12:49.797Z,97036.00
2023-02-16T07:13:50.933Z,97038.00
2023-02-16T07:14:51.233Z,97038.00
2023-02-16T07:15:51.255Z,97034.00
2023-02-16T07:16:50.984Z,97036.00
2023-02-16T07:17:51.343Z,97034.00
2023-02-16T07:18:51.260Z,97034.00
2023-02-16T07:19:51.261Z,97036.00
2023-02-16T07:20:51.608Z,97036.00
2023-02-16T07:21:51.280Z,97040.00
2023-02-16T07:22:51.565Z,97042.00
2023-02-16T07:23:51.703Z,97042.00
2023-02-16T07:24:51.600Z,97042.00
2023-02-16T07:25:51.418Z,97042.00
2023-02-16T07:26:51.613Z,97048.00
2023-02-16T07:27:52.003Z,97048.00
2023-02-16T07:28:52.135Z,97048.00
2023-02-16T07:29:51.761Z,97044.00
2023-02-16T07:30:51.872Z,97046.00
2023-02-16T07:31:50.948Z,97046.00
2023-02-16T07:32:51.857Z,97042.00
2023-02-16T07:33:51.921Z,97042.00
2023-02-16T07:34:51.975Z,97040.00
2023-02-16T07:35:52.035Z,97038.00
2023-02-16T07:36:52.073Z,97042.00
2023-02-16T07:37:51.112Z,97038.00
2023-02-16T07:38:52.178Z,97038.00
2023-02-16T07:39:51.233Z,97042.00
2023-02-16T07:40:52.265Z,97036.00
2023-02-16T07:41:52.322Z,97036.00
2023-02-16T07:42:52.392Z,97036.00
2023-02-16T07:43:52.431Z,97038.00
2023-02-16T07:44:51.465Z,97038.00
2023-02-16T07:45:51.552Z,97038.00
2023-02-16T07:46:52.601Z,97038.00
2023-02-16T07:47:51.633Z,97038.00
2023-02-16T07:48:52.703Z,97038.00
2023-02-16T07:49:52.726Z,97040.00
2023-02-16T07:50:52.772Z,97040.00
2023-02-16T07:51:52.841Z,97044.00
2023-02-16T07:52:52.861Z,97042.00
2023-02-16T07:53:51.921Z,97042.00
2023-02-16T07:54:52.973Z,97040.00
2023-02-16T07:55:52.011Z,97042.00
2023-02-16T07:56:53.092Z,97044.00
2023-02-16T07:57:53.101Z,97044.00
2023-02-16T07:58:53.273Z,97044.00
2023-02-16T07:59:53.197Z,97044.00
2023-02-16T08:00:53.235Z,97044.00
2023-02-16T08:01:53.430Z,97042.00
2023-02-16T08:02:53.500Z,97044.00
2023-02-16T08:03:53.392Z,97042.00
2023-02-16T08:04:52.402Z,97042.00
2023-02-16T08:05:52.449Z,97042.00
2023-02-16T08:06:53.514Z,97042.00
2023-02-16T08:07:53.532Z,97042.00
2023-02-16T08:08:53.563Z,97044.00
2023-02-16T08:09:52.600Z,97046.00
2023-02-16T08:10:53.652Z,97046.00
2023-02-16T08:11:53.679Z,97046.00
2023-02-16T08:12:52.723Z,97042.00
2023-02-16T08:13:53.764Z,97044.00
2023-02-16T08:14:52.839Z,97048.00
2023-02-16T08:15:53.841Z,97044.00
2023-02-16T08:16:56.342Z,97044.00
2023-02-16T08:17:52.872Z,97042.00
2023-02-16T08:18:52.867Z,97040.00
2023-02-16T08:19:54.098Z,97042.00
2023-02-16T08:21:03.677Z,97040.00
2023-02-16T08:21:53.836Z,97042.00
2023-02-16T08:22:52.837Z,97038.00
2023-02-16T08:23:52.820Z,97042.00
2023-02-16T08:24:53.825Z,97044.00
2023-02-16T08:25:53.808Z,97042.00
2023-02-16T08:26:52.813Z,97042.00
2023-02-16T08:27:52.805Z,97042.00
2023-02-16T08:28:52.805Z,97040.00
2023-02-16T08:29:52.788Z,97040.00
2023-02-16T08:30:52.880Z,97042.00
2023-02-16T08:31:53.890Z,97042.00
2023-02-16T08:32:53.774Z,97042.00
2023-02-16T08:33:53.795Z,97040.00
2023-02-16T08:34:52.782Z,97042.00
2023-02-16T08:35:53.751Z,97040.00
2023-02-16T08:36:53.737Z,97044.00
2023-02-16T08:37:52.733Z,97042.00
2023-02-16T08:38:53.732Z,97042.00
2023-02-16T08:39:53.721Z,97044.00
2023-02-16T08:40:53.728Z,97042.00
2023-02-16T08:41:53.724Z,97042.00
2023-02-16T08:42:53.703Z,97044.00
2023-02-16T08:43:52.702Z,97044.00
2023-02-16T08:44:53.776Z,97042.00
2023-02-16T08:45:53.737Z,97042.00
2023-02-16T08:46:53.725Z,97038.00
2023-02-16T08:47:52.662Z,97034.00
2023-02-16T08:48:55.798Z,97032.00
2023-02-16T08:49:52.666Z,97030.00
2023-02-16T08:50:52.656Z,97034.00
2023-02-16T08:51:52.651Z,97034.00
2023-02-16T08:52:53.630Z,97036.00
2023-02-16T08:53:52.629Z,97038.00
2023-02-16T08:54:53.629Z,97038.00
2023-02-16T08:55:52.607Z,97036.00
2023-02-16T08:56:53.602Z,97038.00
2023-02-16T08:57:52.601Z,97040.00
2023-02-16T08:58:53.592Z,97038.00
2023-02-16T08:59:53.592Z,97038.00
2023-02-16T09:00:53.646Z,97040.00
2023-02-16T09:01:53.570Z,97038.00
2023-02-16T09:02:52.591Z,97034.00
2023-02-16T09:03:53.554Z,97038.00
2023-02-16T09:04:53.574Z,97040.00
2023-02-16T09:05:53.542Z,97040.00
2023-02-16T09:06:53.520Z,97038.00
2023-02-16T09:07:52.529Z,97036.00
2023-02-16T09:08:53.509Z,97032.00
2023-02-16T09:09:53.519Z,97030.00
2023-02-16T09:10:53.517Z,97028.00
2023-02-16T09:11:53.512Z,97026.00
2023-02-16T09:12:53.475Z,97026.00
2023-02-16T09:13:53.496Z,97026.00
2023-02-16T09:14:53.469Z,97026.00
2023-02-16T09:15:53.466Z,97030.00
2023-02-16T09:16:53.493Z,97030.00
2023-02-16T09:17:53.473Z,97028.00
2023-02-16T09:18:53.510Z,97026.00
2023-02-16T09:19:52.438Z,97025.00
2023-02-16T09:20:53.426Z,97023.00
2023-02-16T09:21:53.411Z,97026.00
2023-02-16T09:22:53.455Z,97025.00
2023-02-16T09:23:53.410Z,97023.00
2023-02-16T09:24:53.404Z,97025.00
2023-02-16T09:25:52.394Z,97026.00
2023-02-16T09:26:52.396Z,97026.00
2023-02-16T09:27:53.376Z,97030.00
2023-02-16T09:28:53.423Z,97030.00
2023-02-16T09:29:52.394Z,97028.00
2023-02-16T09:30:53.412Z,97028.00
2023-02-16T09:31:53.449Z,97028.00
2023-02-16T09:32:53.344Z,97030.00
2023-02-16T09:33:53.352Z,97030.00
2023-02-16T09:34:53.438Z,97030.00
2023-02-16T09:35:53.327Z,97026.00
2023-02-16T09:36:52.317Z,97026.00
2023-02-16T09:37:52.350Z,97025.00
2023-02-16T09:38:53.378Z,97023.00
2023-02-16T09:39:53.415Z,97023.00
2023-02-16T09:40:53.451Z,97023.00
2023-02-16T09:41:53.452Z,97023.00
2023-02-16T09:42:53.459Z,97023.00
2023-02-16T09:43:53.489Z,97023.00
2023-02-16T09:44:53.528Z,97025.00
2023-02-16T09:45:53.608Z,97025.00
2023-02-16T09:46:52.564Z,97021.00
2023-02-16T09:47:52.583Z,97019.00
2023-02-16T09:48:52.604Z,97013.00
2023-02-16T09:49:52.627Z,97019.00
2023-02-16T09:50:54.955Z,97019.00
2023-02-16T09:51:52.667Z,97017.00
2023-02-16T09:52:53.680Z,97019.00
2023-02-16T09:53:53.712Z,97019.00
2023-02-16T09:54:53.731Z,97019.00
2023-02-16T09:55:53.743Z,97015.00
2023-02-16T09:56:53.778Z,97013.00
2023-02-16T09:57:53.776Z,97013.00
2023-02-16T09:58:53.816Z,97013.00
2023-02-16T09:59:53.819Z,97013.00
2023-02-16T10:00:52.843Z,97015.00
2023-02-16T10:01:53.868Z,97013.00
2023-02-16T10:02:53.891Z,97011.00
2023-02-16T10:03:52.917Z,97015.00
2023-02-16T10:04:53.921Z,97015.00
2023-02-16T10:05:53.950Z,97013.00
2023-02-16T10:06:53.990Z,97015.00
2023-02-16T10:07:52.999Z,97013.00
2023-02-16T10:08:53.997Z,97013.00
2023-02-16T10:09:54.052Z,97011.00
2023-02-16T10:10:54.018Z,97013.00
2023-02-16T10:11:53.028Z,97011.00
2023-02-16T10:12:53.039Z,97009.00
2023-02-16T10:13:54.092Z,97009.00
2023-02-16T10:14:54.138Z,97009.00
2023-02-16T10:15:54.292Z,97005.00
2023-02-16T10:16:54.094Z,97003.00
2023-02-16T10:17:53.098Z,97005.00
2023-02-16T10:18:53.110Z,97001.00
2023-02-16T10:19:54.126Z,96999.00
2023-02-16T10:20:54.141Z,96999.00
2023-02-16T10:21:53.152Z,96999.00
2023-02-16T10:22:53.196Z,96997.00
2023-02-16T10:23:53.173Z,96995.00
2023-02-16T10:24:54.201Z,96995.00
2023-02-16T10:25:53.198Z,97001.00
2023-02-16T10:26:54.213Z,96999.00
2023-02-16T10:27:54.222Z,96999.00
2023-02-16T10:28:54.219Z,96995.00
2023-02-16T10:29:54.256Z,96995.00
2023-02-16T10:30:54.364Z,96991.00
2023-02-16T10:31:54.352Z,96991.00
2023-02-16T10:32:54.268Z,96989.00
2023-02-16T10:33:54.284Z,96989.00
2023-02-16T10:34:54.292Z,96989.00
2023-02-16T10:35:54.290Z,96985.00
2023-02-16T10:36:53.290Z,96985.00
2023-02-16T10:37:54.295Z,96991.00
2023-02-16T10:38:53.381Z,96989.00
2023-02-16T10:39:54.427Z,96987.00
2023-02-16T10:40:54.516Z,96987.00
2023-02-16T10:41:54.527Z,96983.00
2023-02-16T10:42:54.588Z,96978.00
2023-02-16T10:43:53.629Z,96972.00
2023-02-16T10:44:53.670Z,96970.00
2023-02-16T10:45:54.716Z,96964.00
2023-02-16T10:46:53.727Z,96960.00
2023-02-16T10:47:54.761Z,96958.00
2023-02-16T10:48:54.781Z,96956.00
2023-02-16T10:49:54.795Z,96948.00
2023-02-16T10:50:53.814Z,96946.00
2023-02-16T10:51:54.810Z,96946.00
2023-02-16T10:52:53.814Z,96944.00
2023-02-16T10:53:55.121Z,96946.00
2023-02-16T10:54:55.130Z,96944.00
2023-02-16T10:55:53.891Z,96946.00
2023-02-16T10:56:54.980Z,96946.00
2023-02-16T10:57:55.249Z,96944.00
2023-02-16T10:58:55.053Z,96946.00
2023-02-16T10:59:54.852Z,96942.00
2023-02-16T11:00:54.864Z,96942.00
2023-02-16T11:01:54.988Z,96940.00
2023-02-16T11:02:54.983Z,96936.00
2023-02-16T11:03:55.036Z,96938.00
2023-02-16T11:04:55.109Z,96936.00
2023-02-16T11:05:55.152Z,96936.00
2023-02-16T11:06:55.220Z,96932.00
2023-02-16T11:07:54.282Z,96930.00
2023-02-16T11:08:54.341Z,96926.00
2023-02-16T11:09:54.343Z,96922.00
2023-02-16T11:10:55.422Z,96920.00
2023-02-16T11:11:55.432Z,96917.00
2023-02-16T11:12:54.459Z,96917.00
2023-02-16T11:13:55.499Z,96913.00
2023-02-16T11:14:55.532Z,96913.00
2023-02-16T11:15:55.576Z,96915.00
2023-02-16T11:16:55.598Z,96911.00
2023-02-16T11:17:54.625Z,96911.00
2023-02-16T11:18:55.660Z,96915.00
2023-02-16T11:19:55.685Z,96915.00
2023-02-16T11:20:54.746Z,96913.00
2023-02-16T11:21:55.724Z,96911.00
2023-02-16T11:22:54.751Z,96911.00
2023-02-16T11:23:54.772Z,96909.00
2023-02-16T11:24:55.808Z,96909.00
2023-02-16T11:25:55.912Z,96903.00
2023-02-16T11:26:55.959Z,96901.00
2023-02-16T11:27:54.868Z,96897.00
2023-02-16T11:28:55.908Z,96893.00
2023-02-16T11:29:55.960Z,96895.00
2023-02-16T11:30:55.100Z,96891.00
2023-02-16T11:31:56.010Z,96889.00
2023-02-16T11:32:55.948Z,96885.00
2023-02-16T11:33:55.963Z,96885.00
2023-02-16T11:34:55.995Z,96883.00
2023-02-16T11:35:56.951Z,96879.00
2023-02-16T11:36:56.020Z,96881.00
2023-02-16T11:37:56.031Z,96877.00
2023-02-16T11:38:56.032Z,96875.00
2023-02-16T11:39:55.047Z,96875.00
2023-02-16T11:40:56.058Z,96875.00
2023-02-16T11:41:56.082Z,96871.00
2023-02-16T11:42:55.115Z,96866.00
2023-02-16T11:43:55.076Z,96868.00
2023-02-16T11:44:56.062Z,96868.00